createdAt,value
2023-02-24T00:00:32.437Z,9.90
2023-02-24T00:03:06.437Z,9.73
2023-02-24T00:05:37.026Z,11.50
2023-02-24T00:08:05.293Z,12.17
2023-02-24T00:10:34.113Z,10.53
2023-02-24T00:13:02.376Z,11.73
2023-02-24T00:15:30.648Z,11.47
2023-02-24T00:17:59.329Z,11.13
2023-02-24T00:20:33.409Z,13.20
2023-02-24T00:23:01.687Z,12.70
2023-02-24T00:25:29.901Z,13.23
2023-02-24T00:30:55.727Z,15.23
2023-02-24T00:33:24.634Z,16.03
2023-02-24T00:35:55.310Z,16.60
2023-02-24T00:38:25.598Z,16.20
2023-02-24T00:40:55.574Z,17.43
2023-02-24T00:43:23.893Z,16.67
2023-02-24T00:45:52.259Z,15.83
2023-02-24T00:48:22.386Z,17.03
2023-02-24T00:50:52.261Z,17.20
2023-02-24T00:53:22.124Z,16.67
2023-02-24T00:56:00.470Z,16.60
2023-02-24T00:58:29.938Z,16.57
2023-02-24T01:00:58.330Z,17.37
2023-02-24T01:03:29.935Z,15.27
2023-02-24T01:06:12.992Z,16.97
2023-02-24T01:08:47.618Z,15.67
2023-02-24T01:11:34.734Z,14.93
2023-02-24T01:14:06.459Z,14.97
2023-02-24T01:16:34.854Z,15.73
2023-02-24T01:19:03.162Z,16.10
2023-02-24T01:21:31.509Z,15.40
2023-02-24T01:24:01.145Z,15.83
2023-02-24T01:26:30.848Z,16.20
2023-02-24T01:28:59.136Z,16.70
2023-02-24T01:31:28.790Z,16.07
2023-02-24T01:33:57.294Z,16.20
2023-02-24T01:36:27.471Z,15.87
2023-02-24T01:38:55.968Z,15.10
2023-02-24T01:41:27.737Z,16.27
2023-02-24T01:44:06.981Z,15.53
2023-02-24T01:46:38.833Z,15.00
2023-02-24T01:49:12.605Z,15.20
2023-02-24T01:51:47.074Z,15.00
2023-02-24T01:54:20.778Z,14.47
2023-02-24T01:56:52.678Z,14.93
2023-02-24T01:59:23.507Z,14.23
2023-02-24T02:01:55.327Z,15.17
2023-02-24T02:04:35.450Z,15.17
2023-02-24T02:07:04.260Z,15.10
2023-02-24T02:09:34.041Z,15.40
2023-02-24T02:12:03.716Z,15.37
2023-02-24T02:14:33.150Z,15.63
2023-02-24T02:17:16.608Z,15.00
2023-02-24T02:20:27.623Z,16.33
2023-02-24T02:23:35.814Z,15.93
2023-02-24T02:26:48.299Z,15.67
2023-02-24T02:29:46.279Z,16.13
2023-02-24T02:32:53.158Z,16.53
2023-02-24T02:35:26.835Z,16.77
2023-02-24T02:38:03.319Z,16.10
2023-02-24T02:40:41.156Z,15.37
2023-02-24T02:43:17.231Z,17.00
2023-02-24T02:45:50.991Z,17.13
2023-02-24T02:48:25.673Z,16.20
2023-02-24T02:51:04.398Z,16.20
2023-02-24T02:53:39.118Z,16.37
2023-02-24T02:56:15.345Z,15.53
2023-02-24T02:58:47.944Z,16.70
2023-02-24T03:01:21.659Z,15.43
2023-02-24T03:04:27.662Z,16.20
2023-02-24T03:07:06.221Z,16.23
2023-02-24T03:09:40.543Z,16.00
2023-02-24T03:12:14.672Z,17.83
2023-02-24T03:14:51.048Z,17.00
2023-02-24T03:17:47.788Z,15.87
2023-02-24T03:20:24.090Z,15.40
2023-02-24T03:23:00.884Z,15.70
2023-02-24T03:25:39.159Z,16.60
2023-02-24T03:28:17.611Z,18.50
2023-02-24T03:30:53.597Z,15.93
2023-02-24T03:33:26.889Z,15.73
2023-02-24T03:36:01.651Z,15.40
2023-02-24T03:38:38.286Z,16.93
2023-02-24T03:41:11.270Z,15.47
2023-02-24T03:43:46.023Z,16.00
2023-02-24T03:46:16.966Z,16.03
2023-02-24T03:48:52.784Z,17.17
2023-02-24T03:51:24.233Z,16.03
2023-02-24T03:54:20.549Z,15.77
2023-02-24T03:57:02.512Z,15.13
2023-02-24T03:59:43.353Z,14.27
2023-02-24T04:02:20.371Z,14.37
2023-02-24T04:04:59.222Z,14.63
2023-02-24T04:07:42.281Z,14.37
2023-02-24T04:10:21.647Z,16.90
2023-02-24T04:12:57.503Z,16.93
2023-02-24T04:15:30.860Z,16.97
2023-02-24T04:18:04.270Z,16.97
2023-02-24T04:20:39.896Z,17.37
2023-02-24T04:23:15.475Z,16.47
2023-02-24T04:25:50.681Z,17.03
2023-02-24T04:28:21.262Z,16.10
2023-02-24T04:30:55.409Z,15.00
2023-02-24T04:33:24.621Z,14.77
2023-02-24T04:35:54.892Z,15.70
2023-02-24T04:38:24.229Z,15.73
2023-02-24T04:40:54.383Z,15.70
2023-02-24T04:43:22.969Z,18.20
2023-02-24T04:45:51.571Z,17.23
2023-02-24T04:48:20.348Z,16.90
2023-02-24T04:50:55.006Z,16.47
2023-02-24T04:53:27.195Z,16.57
2023-02-24T04:55:57.127Z,15.90
2023-02-24T04:58:28.098Z,14.10
2023-02-24T05:00:57.439Z,15.50
2023-02-24T05:03:28.281Z,14.87
2023-02-24T05:06:00.893Z,14.17
2023-02-24T05:08:31.805Z,12.97
2023-02-24T05:11:03.821Z,14.10
2023-02-24T05:13:33.625Z,14.57
2023-02-24T05:16:07.401Z,14.83
2023-02-24T05:18:37.037Z,16.23
2023-02-24T05:21:26.458Z,16.93
2023-02-24T05:23:55.907Z,16.73
2023-02-24T05:26:26.274Z,18.40
2023-02-24T05:28:56.676Z,17.67
2023-02-24T05:31:28.346Z,16.13
2023-02-24T05:33:59.194Z,13.67
2023-02-24T05:36:30.545Z,13.57
2023-02-24T05:38:59.430Z,14.97
2023-02-24T05:41:32.587Z,14.97
2023-02-24T05:44:04.849Z,14.27
2023-02-24T05:46:36.401Z,14.90
2023-02-24T05:49:09.571Z,14.70
2023-02-24T05:51:43.362Z,15.83
2023-02-24T05:54:14.806Z,15.07
2023-02-24T05:56:44.484Z,17.30
2023-02-24T05:59:18.257Z,14.67
2023-02-24T06:01:46.586Z,15.13
2023-02-24T06:04:27.865Z,16.30
2023-02-24T06:06:56.091Z,16.67
2023-02-24T06:09:24.295Z,16.20
2023-02-24T06:11:54.301Z,15.93
2023-02-24T06:14:22.628Z,14.40
2023-02-24T06:16:51.005Z,12.97
2023-02-24T06:19:20.711Z,12.73
2023-02-24T06:21:49.389Z,12.83
2023-02-24T06:24:18.606Z,13.17
2023-02-24T06:26:49.271Z,12.13
2023-02-24T06:29:19.405Z,13.63
2023-02-24T06:31:48.633Z,12.90
2023-02-24T06:34:18.336Z,14.57
2023-02-24T06:36:47.033Z,15.70
2023-02-24T06:39:16.934Z,15.00
2023-02-24T06:41:45.300Z,13.77
2023-02-24T06:44:13.737Z,14.23
2023-02-24T06:46:43.368Z,14.27
2023-02-24T06:49:12.633Z,14.73
2023-02-24T06:51:43.402Z,14.73
2023-02-24T06:54:12.720Z,16.03
2023-02-24T06:56:41.797Z,14.93
2023-02-24T06:59:12.848Z,17.43
2023-02-24T07:01:47.148Z,16.30
2023-02-24T07:04:19.023Z,16.63
2023-02-24T07:07:03.313Z,16.73
2023-02-24T07:09:32.542Z,16.27
2023-02-24T07:12:02.944Z,17.17
2023-02-24T07:14:31.868Z,16.10
2023-02-24T07:17:00.685Z,15.73
2023-02-24T07:19:32.998Z,15.17
2023-02-24T07:22:03.558Z,15.40
2023-02-24T07:24:36.470Z,15.10
2023-02-24T07:27:07.548Z,14.70
2023-02-24T07:29:37.716Z,76.67
2023-02-24T07:32:09.675Z,17.27
2023-02-24T07:34:40.956Z,17.80
2023-02-24T07:37:10.317Z,16.47
2023-02-24T07:39:42.951Z,17.20
2023-02-24T07:42:13.708Z,17.33
2023-02-24T07:44:49.294Z,15.50
2023-02-24T07:47:21.462Z,17.30
2023-02-24T07:49:51.189Z,15.87
2023-02-24T07:52:19.408Z,17.00
2023-02-24T07:54:49.696Z,16.07
2023-02-24T07:57:18.905Z,16.67
2023-02-24T07:59:48.196Z,17.30
2023-02-24T08:02:18.321Z,17.90
2023-02-24T08:04:51.396Z,17.23
2023-02-24T08:07:24.815Z,17.33
2023-02-24T08:10:24.154Z,17.10
2023-02-24T08:12:56.848Z,16.53
2023-02-24T08:15:33.837Z,18.50
2023-02-24T08:18:02.679Z,18.07
2023-02-24T08:20:36.279Z,17.30
2023-02-24T08:23:08.759Z,18.43
2023-02-24T08:25:41.391Z,18.73
2023-02-24T08:28:11.576Z,19.20
2023-02-24T08:30:45.457Z,17.70
2023-02-24T08:33:19.901Z,18.13
2023-02-24T08:35:57.893Z,18.00
2023-02-24T08:38:39.624Z,17.87
2023-02-24T08:41:13.148Z,19.70
2023-02-24T08:43:42.166Z,19.50
2023-02-24T08:46:26.071Z,19.60
2023-02-24T08:49:00.718Z,19.40
2023-02-24T08:51:34.520Z,19.83
2023-02-24T08:54:10.854Z,19.77
2023-02-24T08:56:43.343Z,20.10
2023-02-24T08:59:29.066Z,19.10
2023-02-24T09:02:12.906Z,19.47
2023-02-24T09:04:41.139Z,18.67
2023-02-24T09:07:15.970Z,20.57
2023-02-24T09:09:45.627Z,19.63
2023-02-24T09:12:22.052Z,20.93
2023-02-24T09:14:55.379Z,19.70
2023-02-24T09:17:49.891Z,20.30
2023-02-24T09:20:38.551Z,21.27
2023-02-24T09:23:08.671Z,19.33
2023-02-24T09:25:44.916Z,19.37
2023-02-24T09:28:18.074Z,20.87
2023-02-24T09:30:54.898Z,21.23
2023-02-24T09:33:26.544Z,21.40
2023-02-24T09:36:09.541Z,21.40
2023-02-24T09:38:57.507Z,20.57
2023-02-24T09:41:33.603Z,22.53
2023-02-24T09:44:07.622Z,21.03
2023-02-24T09:46:53.739Z,20.80
2023-02-24T09:49:25.847Z,21.70
2023-02-24T09:52:00.481Z,21.67
2023-02-24T09:54:33.356Z,20.63
2023-02-24T09:57:09.227Z,20.83
2023-02-24T10:00:01.119Z,23.33
2023-02-24T10:02:47.097Z,22.13
2023-02-24T10:05:27.378Z,20.57
2023-02-24T10:07:58.068Z,22.57
2023-02-24T10:10:35.775Z,20.67
2023-02-24T10:13:14.982Z,19.10
2023-02-24T10:15:58.979Z,21.03
2023-02-24T10:18:34.658Z,20.20
2023-02-24T10:21:16.644Z,19.10
2023-02-24T10:24:08.941Z,20.07
2023-02-24T10:26:59.734Z,20.47
2023-02-24T10:29:46.285Z,21.17
2023-02-24T10:32:25.006Z,21.97
2023-02-24T10:34:54.076Z,22.23
2023-02-24T10:37:29.551Z,21.87
2023-02-24T10:40:09.462Z,21.30
2023-02-24T10:42:45.704Z,20.37
2023-02-24T10:45:19.352Z,20.00
2023-02-24T10:47:57.694Z,20.63
2023-02-24T10:50:32.615Z,20.73
2023-02-24T10:53:34.280Z,20.37
2023-02-24T10:56:26.783Z,18.03
2023-02-24T10:59:22.147Z,18.70
2023-02-24T11:01:59.146Z,19.73
2023-02-24T11:04:53.861Z,19.03
2023-02-24T11:07:44.140Z,18.20
2023-02-24T11:10:26.136Z,17.83
2023-02-24T11:13:14.401Z,17.83
2023-02-24T11:16:03.775Z,16.23
2023-02-24T11:18:34.472Z,16.93
2023-02-24T11:21:05.905Z,17.23
2023-02-24T11:23:40.246Z,17.17
2023-02-24T11:26:17.616Z,16.80
2023-02-24T11:29:03.894Z,17.27
2023-02-24T11:31:59.568Z,17.83
2023-02-24T11:34:42.478Z,16.43
2023-02-24T11:37:34.487Z,16.57
2023-02-24T11:40:09.478Z,14.67
2023-02-24T11:42:43.712Z,16.27
2023-02-24T11:45:25.428Z,16.17
2023-02-24T11:48:00.287Z,15.93
2023-02-24T11:50:39.616Z,14.87
2023-02-24T11:53:23.831Z,16.17
2023-02-24T11:55:59.725Z,15.70
2023-02-24T11:58:36.831Z,15.53
2023-02-24T12:01:13.520Z,15.80
2023-02-24T12:03:52.244Z,15.47
2023-02-24T12:06:35.282Z,16.20
2023-02-24T12:09:10.308Z,15.83
2023-02-24T12:11:53.223Z,15.37
2023-02-24T12:14:28.696Z,16.43
2023-02-24T12:17:12.066Z,15.60
2023-02-24T12:19:54.562Z,18.50
2023-02-24T12:22:30.050Z,19.13
2023-02-24T12:24:58.654Z,19.33
2023-02-24T12:27:42.221Z,20.57
2023-02-24T12:30:49.639Z,21.10
2023-02-24T12:33:42.366Z,20.93
2023-02-24T12:36:23.704Z,21.33
2023-02-24T12:39:07.013Z,19.90
2023-02-24T12:41:53.775Z,19.73
2023-02-24T12:44:37.205Z,18.67
2023-02-24T12:47:11.736Z,18.27
2023-02-24T12:50:06.826Z,18.70
2023-02-24T12:52:50.848Z,17.97
2023-02-24T12:55:27.850Z,17.07
2023-02-24T12:58:09.387Z,16.23
2023-02-24T13:00:51.476Z,15.07
2023-02-24T13:03:37.183Z,15.67
2023-02-24T13:06:23.180Z,16.17
2023-02-24T13:08:59.909Z,16.03
2023-02-24T13:11:41.662Z,15.30
2023-02-24T13:14:20.747Z,15.17
2023-02-24T13:16:49.455Z,15.30
2023-02-24T13:19:23.350Z,14.37
2023-02-24T13:22:05.140Z,14.43
2023-02-24T13:24:34.450Z,15.70
2023-02-24T13:27:21.616Z,15.60
2023-02-24T13:29:51.979Z,14.73
2023-02-24T13:32:31.663Z,15.30
2023-02-24T13:35:02.585Z,16.33
2023-02-24T13:37:35.530Z,15.23
2023-02-24T13:40:23.276Z,14.33
2023-02-24T13:43:01.937Z,14.37
2023-02-24T13:45:31.892Z,14.03
2023-02-24T13:48:24.212Z,13.60
2023-02-24T13:51:21.170Z,12.57
2023-02-24T13:54:08.502Z,13.00
2023-02-24T13:56:44.999Z,28.57
2023-02-24T13:59:40.525Z,13.07
2023-02-24T14:02:16.794Z,12.53
2023-02-24T14:04:51.857Z,12.70
2023-02-24T14:07:23.965Z,12.93
2023-02-24T14:09:55.594Z,13.73
2023-02-24T14:12:28.989Z,13.27
2023-02-24T14:14:59.250Z,12.40
2023-02-24T14:17:32.708Z,13.33
2023-02-24T14:20:15.737Z,13.00
2023-02-24T14:22:49.379Z,12.13
2023-02-24T14:25:18.287Z,13.27
2023-02-24T14:27:49.998Z,13.97
2023-02-24T14:30:34.585Z,14.17
2023-02-24T14:33:04.291Z,14.57
2023-02-24T14:35:38.729Z,12.63
2023-02-24T14:38:07.339Z,12.00
2023-02-24T14:40:35.492Z,13.37
2023-02-24T14:43:04.676Z,13.27
2023-02-24T14:45:34.171Z,13.33
2023-02-24T14:48:02.361Z,13.23
2023-02-24T14:50:34.096Z,12.37
2023-02-24T14:53:06.966Z,13.77
2023-02-24T14:55:38.682Z,13.67
2023-02-24T14:58:14.596Z,13.37
2023-02-24T15:00:50.876Z,13.07
2023-02-24T15:03:24.558Z,12.93
2023-02-24T15:05:58.084Z,17.17
2023-02-24T15:08:36.256Z,12.20
2023-02-24T15:11:12.687Z,12.83
2023-02-24T15:13:43.709Z,12.83
2023-02-24T15:16:20.126Z,12.07
2023-02-24T15:18:52.370Z,12.33
2023-02-24T15:21:25.016Z,12.17
2023-02-24T15:24:01.417Z,13.17
2023-02-24T15:26:32.460Z,13.50
2023-02-24T15:29:14.568Z,12.97
2023-02-24T15:31:51.547Z,11.73
2023-02-24T15:34:24.008Z,11.93
2023-02-24T15:36:56.412Z,11.13
2023-02-24T15:39:31.226Z,10.67
2023-02-24T15:42:09.552Z,10.73
2023-02-24T15:44:38.210Z,11.93
2023-02-24T15:47:24.506Z,10.93
2023-02-24T15:49:53.851Z,10.90
2023-02-24T15:52:25.808Z,10.53
2023-02-24T15:54:56.548Z,11.43
2023-02-24T15:57:25.074Z,12.43
2023-02-24T15:59:53.611Z,10.70
2023-02-24T16:02:24.837Z,9.87
2023-02-24T16:04:53.711Z,11.27
2023-02-24T16:07:23.952Z,11.00
2023-02-24T16:09:54.707Z,10.00
2023-02-24T16:12:28.738Z,10.70
2023-02-24T16:15:02.977Z,10.10
2023-02-24T16:17:38.710Z,11.37
2023-02-24T16:20:11.891Z,11.40
2023-02-24T16:22:40.048Z,11.53
2023-02-24T16:25:09.209Z,10.87
2023-02-24T16:27:37.651Z,10.93
2023-02-24T16:30:07.688Z,10.97
2023-02-24T16:32:38.731Z,11.87
2023-02-24T16:35:11.199Z,11.53
2023-02-24T16:37:39.591Z,11.70
2023-02-24T16:40:37.576Z,11.10
2023-02-24T16:43:06.141Z,10.73
2023-02-24T16:45:35.723Z,12.30
2023-02-24T16:48:08.982Z,11.77
2023-02-24T16:50:41.020Z,24.90
2023-02-24T16:53:15.912Z,20.00
2023-02-24T16:55:44.579Z,14.67
2023-02-24T16:58:13.897Z,15.63
2023-02-24T17:00:44.664Z,13.67
2023-02-24T17:03:19.453Z,12.53
2023-02-24T17:05:57.736Z,13.17
2023-02-24T17:08:26.196Z,15.70
2023-02-24T17:10:54.533Z,15.43
2023-02-24T17:13:23.564Z,12.00
2023-02-24T17:15:55.119Z,15.43
2023-02-24T17:18:25.598Z,15.10
2023-02-24T17:20:54.805Z,14.07
2023-02-24T17:23:23.430Z,14.03
2023-02-24T17:25:54.699Z,14.67
2023-02-24T17:28:23.319Z,14.13
2023-02-24T17:30:51.784Z,13.77
2023-02-24T17:33:20.071Z,14.03
2023-02-24T17:35:49.633Z,13.10
2023-02-24T17:38:19.887Z,14.30
2023-02-24T17:40:48.865Z,14.70
2023-02-24T17:43:17.305Z,14.00
2023-02-24T17:45:47.808Z,14.30
2023-02-24T17:48:17.011Z,13.03
2023-02-24T17:50:46.684Z,13.87
2023-02-24T17:53:16.731Z,13.20
2023-02-24T17:56:01.355Z,12.50
2023-02-24T17:58:30.206Z,13.67
2023-02-24T18:00:58.526Z,12.77
2023-02-24T18:03:26.957Z,13.40
2023-02-24T18:06:00.545Z,13.87
2023-02-24T18:08:30.632Z,13.37
2023-02-24T18:10:59.852Z,12.13
2023-02-24T18:13:28.942Z,12.43
2023-02-24T18:15:58.614Z,13.97
2023-02-24T18:18:27.938Z,12.90
2023-02-24T18:21:01.596Z,13.27
2023-02-24T18:23:31.628Z,11.87
2023-02-24T18:26:08.996Z,13.93
2023-02-24T18:28:38.381Z,14.20
2023-02-24T18:31:13.241Z,14.23
2023-02-24T18:33:41.758Z,13.83
2023-02-24T18:36:11.104Z,13.10
2023-02-24T18:38:41.028Z,14.27
2023-02-24T18:41:12.563Z,13.13
2023-02-24T18:43:41.191Z,13.73
2023-02-24T18:46:14.080Z,14.07
2023-02-24T18:48:44.496Z,13.20
2023-02-24T18:51:13.882Z,13.73
2023-02-24T18:53:43.626Z,13.70
2023-02-24T18:56:17.693Z,14.03
2023-02-24T18:58:47.089Z,15.07
2023-02-24T19:01:19.753Z,14.80
2023-02-24T19:03:51.244Z,12.73
2023-02-24T19:06:22.155Z,15.20
2023-02-24T19:08:59.361Z,15.03
2023-02-24T19:11:28.120Z,14.77
2023-02-24T19:13:56.826Z,11.57
2023-02-24T19:16:25.670Z,11.83
2023-02-24T19:18:56.521Z,10.80
2023-02-24T19:21:26.456Z,9.23
2023-02-24T19:23:56.354Z,8.23
2023-02-24T19:26:27.191Z,7.40
2023-02-24T19:28:58.478Z,8.37
2023-02-24T19:31:29.483Z,9.57
2023-02-24T19:34:00.768Z,7.77
2023-02-24T19:36:29.775Z,6.47
2023-02-24T19:38:59.529Z,6.43
2023-02-24T19:41:28.416Z,6.30
2023-02-24T19:43:56.996Z,7.10
2023-02-24T19:46:25.603Z,6.90
2023-02-24T19:48:54.095Z,6.07
2023-02-24T19:51:24.781Z,6.93
2023-02-24T19:53:54.136Z,9.03
2023-02-24T19:56:25.844Z,7.17
2023-02-24T19:58:55.019Z,6.63
2023-02-24T20:01:25.153Z,5.77
2023-02-24T20:03:56.533Z,5.87
2023-02-24T20:06:30.363Z,5.63
2023-02-24T20:09:00.440Z,5.67
2023-02-24T20:11:33.204Z,5.17
2023-02-24T20:14:01.382Z,4.50
2023-02-24T20:16:32.632Z,5.47
2023-02-24T20:19:01.594Z,5.57
2023-02-24T20:21:32.135Z,4.50
2023-02-24T20:24:01.466Z,4.47
2023-02-24T20:26:31.977Z,4.33
2023-02-24T20:29:01.407Z,4.30
2023-02-24T20:31:29.728Z,4.97
2023-02-24T20:33:58.029Z,5.00
2023-02-24T20:36:28.417Z,5.80
2023-02-24T20:38:59.512Z,7.00
2023-02-24T20:41:30.919Z,7.50
2023-02-24T20:44:01.021Z,6.90
2023-02-24T20:46:31.779Z,6.30
2023-02-24T20:49:02.636Z,4.80
2023-02-24T20:51:32.139Z,4.70
2023-02-24T20:54:01.088Z,5.10
2023-02-24T20:56:35.718Z,4.60
2023-02-24T20:59:07.528Z,4.93
2023-02-24T21:01:36.838Z,4.07
2023-02-24T21:04:10.533Z,4.07
2023-02-24T21:06:38.751Z,3.60
2023-02-24T21:09:07.493Z,4.00
2023-02-24T21:11:37.035Z,3.83
2023-02-24T21:14:06.020Z,3.80
2023-02-24T21:16:35.817Z,3.03
2023-02-24T21:19:04.113Z,3.43
2023-02-24T21:21:32.297Z,2.90
2023-02-24T21:24:00.890Z,2.60
2023-02-24T21:26:29.214Z,2.87
2023-02-24T21:28:59.330Z,3.00
2023-02-24T21:31:28.783Z,3.23
2023-02-24T21:33:57.728Z,2.90
2023-02-24T21:36:27.923Z,3.23
2023-02-24T21:38:56.612Z,3.10
2023-02-24T21:41:25.295Z,3.30
2023-02-24T21:43:55.762Z,3.03
2023-02-24T21:46:28.455Z,3.40
2023-02-24T21:48:57.714Z,3.17
2023-02-24T21:51:27.267Z,3.30
2023-02-24T21:53:56.718Z,3.23
2023-02-24T21:56:27.766Z,2.97
2023-02-24T21:59:01.357Z,3.27
2023-02-24T22:01:33.944Z,3.10
2023-02-24T22:04:05.189Z,2.73
2023-02-24T22:06:36.253Z,2.83
2023-02-24T22:09:07.404Z,3.03
2023-02-24T22:11:40.722Z,2.50
2023-02-24T22:14:10.376Z,2.70
2023-02-24T22:16:40.669Z,2.97
2023-02-24T22:19:09.651Z,3.30
2023-02-24T22:21:39.234Z,3.20
2023-02-24T22:24:08.294Z,3.60
2023-02-24T22:26:36.456Z,3.93
2023-02-24T22:29:04.912Z,3.50
2023-02-24T22:31:35.173Z,3.50
2023-02-24T22:34:05.870Z,3.63
2023-02-24T22:36:37.726Z,3.23
2023-02-24T22:39:08.858Z,3.83
2023-02-24T22:41:38.135Z,4.03
2023-02-24T22:44:07.330Z,4.47
2023-02-24T22:46:38.790Z,4.07
2023-02-24T22:49:11.378Z,4.73
2023-02-24T22:51:39.601Z,5.13
2023-02-24T22:54:07.774Z,4.47
2023-02-24T22:56:37.849Z,4.90
2023-02-24T22:59:06.117Z,5.20
2023-02-24T23:01:37.333Z,4.93
2023-02-24T23:04:09.387Z,4.60
2023-02-24T23:06:41.711Z,4.57
2023-02-24T23:09:11.092Z,5.10
2023-02-24T23:11:41.832Z,5.17
2023-02-24T23:14:14.661Z,4.80
2023-02-24T23:16:46.428Z,5.03
2023-02-24T23:19:18.666Z,4.73
2023-02-24T23:21:51.041Z,4.77
2023-02-24T23:24:21.643Z,4.50
2023-02-24T23:26:53.782Z,4.73
2023-02-24T23:29:24.184Z,5.30
2023-02-24T23:31:57.301Z,5.63
2023-02-24T23:34:27.123Z,5.10
2023-02-24T23:36:56.740Z,5.97
2023-02-24T23:39:24.873Z,5.10
2023-02-24T23:41:57.460Z,5.47
2023-02-24T23:44:26.280Z,5.43
2023-02-24T23:46:54.694Z,5.67
2023-02-24T23:49:22.886Z,5.50
2023-02-24T23:51:51.119Z,5.97
2023-02-24T23:54:20.879Z,5.67
2023-02-24T23:56:49.207Z,5.80
2023-02-24T23:59:17.386Z,5.83
